55WI weather

Cranmoor Airstrip
Nekoosa, Wisconsin, United States

Public forecast

Using degrees Fahrenheit for public forecast. Weather courtesy of forecast.io.

Closest aviation weather report (METAR) to Cranmoor Airstrip

Closest report is Alexander Field South Wood County Airport, 6.1 nm (11.3 km) ENE. Retrieved 2020/02/26 18:54 UTC (60 minutes ago):

KISW 261854Z AUTO 36013G21KT 10SM OVC039 M03/M11 A3015 RMK AO2 SLP224 T10331106

Closest aviation forecast (TAF) to Cranmoor Airstrip

Closest forecast is Volk Field, 25.9 nm (47.9 km) SSW. Retrieved 2020/02/26 17:09 UTC (3 hours ago):

TAF COR KVOK 261705Z 2617/2723 03015G25KT 9999 BKN034 BKN180 QNH3022INS BECMG 2623/2624 32012G18KT 9999 FEW016 QNH3016INS BECMG 2705/2706 30009KT 9999 SCT009 QNH3010INS TXM02/2620Z TNM07/2711Z LAST NO AMDS AFT 2622 NEXT 2709